createdAt,value
2023-01-01T00:01:29.260Z,64.09
2023-01-01T00:03:55.566Z,63.56
2023-01-01T00:06:21.878Z,63.29
2023-01-01T00:08:48.132Z,63.85
2023-01-01T00:11:14.407Z,63.02
2023-01-01T00:13:40.661Z,62.80
2023-01-01T00:16:06.997Z,63.47
2023-01-01T00:18:33.302Z,62.93
2023-01-01T00:20:59.546Z,63.08
2023-01-01T00:23:25.855Z,63.00
2023-01-01T00:25:52.394Z,62.90
2023-01-01T00:28:18.692Z,63.57
2023-01-01T00:30:44.941Z,63.35
2023-01-01T00:33:11.215Z,63.37
2023-01-01T00:35:37.514Z,62.57
2023-01-01T00:38:03.782Z,62.50
2023-01-01T00:40:30.030Z,63.22
2023-01-01T00:42:56.321Z,63.24
2023-01-01T00:45:23.132Z,62.93
2023-01-01T00:47:49.537Z,62.48
2023-01-01T00:50:15.785Z,63.44
2023-01-01T00:52:42.145Z,63.20
2023-01-01T00:55:08.462Z,62.46
2023-01-01T00:57:34.716Z,62.60
2023-01-01T01:00:01.001Z,62.72
2023-01-01T01:02:27.399Z,62.85
2023-01-01T01:04:53.800Z,62.98
2023-01-01T01:07:20.067Z,63.03
2023-01-01T01:09:46.339Z,63.85
2023-01-01T01:12:17.867Z,63.62
2023-01-01T01:14:45.218Z,62.91
2023-01-01T01:17:11.507Z,63.61
2023-01-01T01:19:37.810Z,63.29
2023-01-01T01:22:04.080Z,63.80
2023-01-01T01:24:30.326Z,63.57
2023-01-01T01:26:56.568Z,62.86
2023-01-01T01:29:22.835Z,63.55
2023-01-01T01:31:49.106Z,63.91
2023-01-01T01:34:16.342Z,62.80
2023-01-01T01:36:43.007Z,63.74
2023-01-01T01:39:09.306Z,63.54
2023-01-01T01:41:35.576Z,63.32
2023-01-01T01:44:01.821Z,62.75
2023-01-01T01:46:28.088Z,63.24
2023-01-01T01:48:54.357Z,63.60
2023-01-01T01:51:20.737Z,64.09
2023-01-01T01:53:46.980Z,63.81
2023-01-01T01:56:13.235Z,64.37
2023-01-01T01:58:39.536Z,63.64
2023-01-01T02:01:05.900Z,64.25
2023-01-01T02:03:32.267Z,64.30
2023-01-01T02:05:58.547Z,64.14
2023-01-01T02:08:24.915Z,64.22
2023-01-01T02:10:51.178Z,65.09
2023-01-01T02:13:17.425Z,64.33
2023-01-01T02:15:43.738Z,64.03
2023-01-01T02:18:10.036Z,64.42
2023-01-01T02:20:36.299Z,63.76
2023-01-01T02:23:04.658Z,63.23
2023-01-01T02:25:31.128Z,63.56
2023-01-01T02:27:57.392Z,63.05
2023-01-01T02:30:23.665Z,63.71
2023-01-01T02:32:49.940Z,63.12
2023-01-01T02:35:16.208Z,63.34
2023-01-01T02:37:42.457Z,63.35
2023-01-01T02:40:08.738Z,63.28
2023-01-01T02:42:35.000Z,63.51
2023-01-01T02:45:01.270Z,63.22
2023-01-01T02:47:27.655Z,63.21
2023-01-01T02:49:53.919Z,63.13
2023-01-01T02:52:20.181Z,62.76
2023-01-01T02:54:46.450Z,63.15
2023-01-01T02:57:12.706Z,62.57
2023-01-01T02:59:39.080Z,62.62
2023-01-01T03:02:05.444Z,62.59
2023-01-01T03:04:31.771Z,62.55
2023-01-01T03:06:58.022Z,62.63
2023-01-01T03:09:24.292Z,62.79
2023-01-01T03:11:50.564Z,62.58
2023-01-01T03:14:16.831Z,62.42
2023-01-01T03:16:43.111Z,62.43
2023-01-01T03:19:09.826Z,62.32
2023-01-01T03:21:36.111Z,62.84
2023-01-01T03:24:02.366Z,62.46
2023-01-01T03:26:28.615Z,62.36
2023-01-01T03:28:54.853Z,62.58
2023-01-01T03:31:21.129Z,62.29
2023-01-01T03:33:47.376Z,63.00
2023-01-01T03:36:13.654Z,62.24
2023-01-01T03:38:39.930Z,62.53
2023-01-01T03:41:06.173Z,61.95
2023-01-01T03:43:32.441Z,62.48
2023-01-01T03:45:58.720Z,61.88
2023-01-01T03:48:24.967Z,61.99
2023-01-01T03:50:51.212Z,61.98
2023-01-01T03:53:17.548Z,62.01
2023-01-01T03:55:43.831Z,62.14
2023-01-01T03:58:10.109Z,61.94
2023-01-01T04:00:36.396Z,61.94
2023-01-01T04:03:02.708Z,61.89
2023-01-01T04:05:29.104Z,62.00
2023-01-01T04:07:55.363Z,61.55
2023-01-01T04:10:21.623Z,61.92
2023-01-01T04:12:47.977Z,61.87
2023-01-01T04:15:14.244Z,61.96
2023-01-01T04:17:40.514Z,61.81
2023-01-01T04:20:06.776Z,61.91
2023-01-01T04:22:33.068Z,61.46
2023-01-01T04:24:59.363Z,61.28
2023-01-01T04:27:25.623Z,61.05
2023-01-01T04:29:51.890Z,61.43
2023-01-01T04:32:18.158Z,61.52
2023-01-01T04:34:44.432Z,61.44
2023-01-01T04:37:13.406Z,61.25
2023-01-01T04:39:39.974Z,61.81
2023-01-01T04:42:06.233Z,61.34
2023-01-01T04:44:32.516Z,62.23
2023-01-01T04:47:00.358Z,61.86
2023-01-01T04:49:26.698Z,62.04
2023-01-01T04:51:52.958Z,61.84
2023-01-01T04:54:19.237Z,61.72
2023-01-01T04:56:45.480Z,61.33
2023-01-01T04:59:11.748Z,61.24
2023-01-01T05:01:38.119Z,61.28
2023-01-01T05:04:04.429Z,61.11
2023-01-01T05:06:30.714Z,61.61
2023-01-01T05:08:56.955Z,61.72
2023-01-01T05:11:23.218Z,61.14
2023-01-01T05:13:49.478Z,60.80
2023-01-01T05:16:15.765Z,61.20
2023-01-01T05:18:42.050Z,61.62
2023-01-01T05:21:08.310Z,60.97
2023-01-01T05:23:34.576Z,61.47
2023-01-01T05:26:00.851Z,61.14
2023-01-01T05:28:27.094Z,60.98
2023-01-01T05:30:53.352Z,61.05
2023-01-01T05:33:19.626Z,60.93
2023-01-01T05:35:45.887Z,61.11
2023-01-01T05:38:13.175Z,61.44
2023-01-01T05:40:39.541Z,61.09
2023-01-01T05:43:05.808Z,62.14
2023-01-01T05:45:32.153Z,62.25
2023-01-01T05:47:58.525Z,61.86
2023-01-01T05:50:24.813Z,61.86
2023-01-01T05:52:51.107Z,62.15
2023-01-01T05:55:17.391Z,61.96
2023-01-01T05:57:43.652Z,61.94
2023-01-01T06:00:09.917Z,62.34
2023-01-01T06:02:36.225Z,62.16
2023-01-01T06:05:02.509Z,61.64
2023-01-01T06:07:28.754Z,62.26
2023-01-01T06:09:55.016Z,62.19
2023-01-01T06:12:21.381Z,62.17
2023-01-01T06:14:47.629Z,61.65
2023-01-01T06:17:13.868Z,62.56
2023-01-01T06:19:40.152Z,62.20
2023-01-01T06:22:06.447Z,61.67
2023-01-01T06:24:38.739Z,61.61
2023-01-01T06:27:05.451Z,62.49
2023-01-01T06:29:31.733Z,62.65
2023-01-01T06:31:57.981Z,62.40
2023-01-01T06:34:24.226Z,62.91
2023-01-01T06:36:50.469Z,62.16
2023-01-01T06:39:16.720Z,62.15
2023-01-01T06:41:42.983Z,62.31
2023-01-01T06:44:09.251Z,62.68
2023-01-01T06:46:35.595Z,62.52
2023-01-01T06:49:01.937Z,62.35
2023-01-01T06:51:28.179Z,62.56
2023-01-01T06:53:54.446Z,61.78
2023-01-01T06:56:20.701Z,61.88
2023-01-01T06:58:46.989Z,62.41
2023-01-01T07:01:13.349Z,62.43
2023-01-01T07:03:39.731Z,62.06
2023-01-01T07:06:05.993Z,62.42
2023-01-01T07:08:32.283Z,62.16
2023-01-01T07:10:58.582Z,61.37
2023-01-01T07:13:24.934Z,61.06
2023-01-01T07:15:51.226Z,61.75
2023-01-01T07:18:17.504Z,60.90
2023-01-01T07:20:43.778Z,61.70
2023-01-01T07:23:10.093Z,61.57
2023-01-01T07:25:36.368Z,61.10
2023-01-01T07:28:02.656Z,61.74
2023-01-01T07:30:28.926Z,60.25
2023-01-01T07:32:55.271Z,61.18
2023-01-01T07:35:21.514Z,61.07
2023-01-01T07:37:47.797Z,60.51
2023-01-01T07:40:14.149Z,60.89
2023-01-01T07:42:40.404Z,61.24
2023-01-01T07:45:06.678Z,60.65
2023-01-01T07:47:32.958Z,61.47
2023-01-01T07:49:59.255Z,61.46
2023-01-01T07:52:25.524Z,61.74
2023-01-01T07:54:51.782Z,61.73
2023-01-01T07:57:18.044Z,61.38
2023-01-01T07:59:44.322Z,61.01
2023-01-01T08:02:10.695Z,61.16
2023-01-01T08:04:37.070Z,61.91
2023-01-01T08:07:03.353Z,61.49
2023-01-01T08:09:29.625Z,61.22
2023-01-01T08:11:55.887Z,61.75
2023-01-01T08:14:22.167Z,61.34
2023-01-01T08:16:48.466Z,61.42
2023-01-01T08:19:14.734Z,61.83
2023-01-01T08:21:41.002Z,61.88
2023-01-01T08:24:07.313Z,61.78
2023-01-01T08:26:33.605Z,61.50
2023-01-01T08:28:59.935Z,61.25
2023-01-01T08:31:26.248Z,61.41
2023-01-01T08:33:52.518Z,61.46
2023-01-01T08:36:18.753Z,61.62
2023-01-01T08:38:45.006Z,62.10
2023-01-01T08:41:11.288Z,61.75
2023-01-01T08:43:37.606Z,62.28
2023-01-01T08:46:03.990Z,62.82
2023-01-01T08:48:31.072Z,62.56
2023-01-01T08:50:57.478Z,61.72
2023-01-01T08:53:23.756Z,62.07
2023-01-01T08:55:50.022Z,62.84
2023-01-01T08:58:16.262Z,62.33
2023-01-01T09:00:42.517Z,62.20
2023-01-01T09:03:08.928Z,62.19
2023-01-01T09:05:35.229Z,62.58
2023-01-01T09:08:01.509Z,62.19
2023-01-01T09:10:27.799Z,62.41
2023-01-01T09:12:54.096Z,62.01
2023-01-01T09:15:20.454Z,62.59
2023-01-01T09:17:46.715Z,61.94
2023-01-01T09:20:12.974Z,62.04
2023-01-01T09:22:39.217Z,61.92
2023-01-01T09:25:05.484Z,61.48
2023-01-01T09:27:31.726Z,62.09
2023-01-01T09:29:58.025Z,62.00
2023-01-01T09:32:24.286Z,62.02
2023-01-01T09:34:52.473Z,61.96
2023-01-01T09:37:19.046Z,62.28
2023-01-01T09:39:45.323Z,61.90
2023-01-01T09:42:11.602Z,62.13
2023-01-01T09:44:37.891Z,61.88
2023-01-01T09:47:04.180Z,61.03
2023-01-01T09:49:30.438Z,61.62
2023-01-01T09:51:58.335Z,61.93
2023-01-01T09:54:24.814Z,61.70
2023-01-01T09:56:51.057Z,61.54
2023-01-01T09:59:17.322Z,61.16
2023-01-01T10:01:43.685Z,61.61
2023-01-01T10:04:10.087Z,61.64
2023-01-01T10:06:36.438Z,62.38
2023-01-01T10:09:02.715Z,61.82
2023-01-01T10:11:28.969Z,61.50
2023-01-01T10:13:55.229Z,61.32
2023-01-01T10:16:24.788Z,61.27
2023-01-01T10:18:51.543Z,62.03
2023-01-01T10:21:17.800Z,61.22
2023-01-01T10:23:44.063Z,61.59
2023-01-01T10:26:10.303Z,61.57
2023-01-01T10:28:36.584Z,61.96
2023-01-01T10:31:02.825Z,61.24
2023-01-01T10:33:29.070Z,61.73
2023-01-01T10:35:55.329Z,60.96
2023-01-01T10:38:21.576Z,60.62
2023-01-01T10:40:47.836Z,60.47
2023-01-01T10:43:14.092Z,59.96
2023-01-01T10:45:40.399Z,59.08
2023-01-01T10:48:06.705Z,59.53
2023-01-01T10:50:32.974Z,58.47
2023-01-01T10:52:59.325Z,59.50
2023-01-01T10:55:25.582Z,59.03
2023-01-01T10:57:51.860Z,58.83
2023-01-01T11:00:18.100Z,59.76
2023-01-01T11:02:44.599Z,59.45
2023-01-01T11:05:14.956Z,58.96
2023-01-01T11:07:44.019Z,58.68
2023-01-01T11:10:10.290Z,59.17
2023-01-01T11:13:04.144Z,59.44
2023-01-01T11:15:22.792Z,58.84
2023-01-01T11:17:49.058Z,59.07
2023-01-01T11:20:15.304Z,59.46
2023-01-01T11:22:41.555Z,58.79
2023-01-01T11:25:07.823Z,58.12
2023-01-01T11:27:34.085Z,58.64
2023-01-01T11:30:00.382Z,57.58
2023-01-01T11:32:26.696Z,57.95
2023-01-01T11:34:52.967Z,57.68
2023-01-01T11:37:19.257Z,55.92
2023-01-01T11:39:45.529Z,54.73
2023-01-01T11:42:11.777Z,52.49
2023-01-01T11:44:38.128Z,52.07
2023-01-01T11:47:04.406Z,52.25
2023-01-01T11:49:30.694Z,52.06
2023-01-01T11:51:57.047Z,52.65
2023-01-01T11:54:23.298Z,51.88
2023-01-01T11:56:49.700Z,51.91
2023-01-01T11:59:15.992Z,52.15
2023-01-01T12:01:42.312Z,52.64
2023-01-01T12:04:08.656Z,52.10
2023-01-01T12:06:34.979Z,52.71
2023-01-01T12:09:01.247Z,52.46
2023-01-01T12:11:27.506Z,52.15
2023-01-01T12:13:53.766Z,51.60
2023-01-01T12:16:20.078Z,50.99
2023-01-01T12:18:46.408Z,49.67
2023-01-01T12:21:12.662Z,51.08
2023-01-01T12:23:38.936Z,49.57
2023-01-01T12:26:05.199Z,49.24
2023-01-01T12:28:31.482Z,49.14
2023-01-01T12:30:57.848Z,49.92
2023-01-01T12:33:24.155Z,49.64
2023-01-01T12:35:50.395Z,49.08
2023-01-01T12:38:16.644Z,50.28
2023-01-01T12:40:42.900Z,50.52
2023-01-01T12:43:09.186Z,50.16
2023-01-01T12:45:35.462Z,50.08
2023-01-01T12:48:01.725Z,49.54
2023-01-01T12:50:28.011Z,47.97
2023-01-01T12:52:54.271Z,47.22
2023-01-01T12:55:20.541Z,47.41
2023-01-01T12:57:46.810Z,47.02
2023-01-01T13:00:13.076Z,48.19
2023-01-01T13:02:39.420Z,48.76
2023-01-01T13:05:05.780Z,48.76
2023-01-01T13:07:32.032Z,48.42
2023-01-01T13:09:58.344Z,47.21
2023-01-01T13:12:24.686Z,47.23
2023-01-01T13:14:50.953Z,48.32
2023-01-01T13:17:17.287Z,47.97
2023-01-01T13:19:43.541Z,48.71
2023-01-01T13:22:09.813Z,48.55
2023-01-01T13:24:36.139Z,47.68
2023-01-01T13:27:07.376Z,48.21
2023-01-01T13:29:36.957Z,48.13
2023-01-01T13:32:03.267Z,47.57
2023-01-01T13:34:29.519Z,47.79
2023-01-01T13:36:55.840Z,47.18
2023-01-01T13:39:22.086Z,47.81
2023-01-01T13:41:48.373Z,46.13
2023-01-01T13:44:14.663Z,46.92
2023-01-01T13:46:40.990Z,46.86
2023-01-01T13:49:07.306Z,47.63
2023-01-01T13:52:04.308Z,47.52
2023-01-01T13:54:26.116Z,47.33
2023-01-01T13:56:52.901Z,46.40
2023-01-01T13:59:19.159Z,46.95
2023-01-01T14:01:45.581Z,47.71
2023-01-01T14:04:11.922Z,46.46
2023-01-01T14:06:38.229Z,46.53
2023-01-01T14:09:04.511Z,45.90
2023-01-01T14:11:30.804Z,46.79
2023-01-01T14:13:57.059Z,47.38
2023-01-01T14:16:23.371Z,47.22
2023-01-01T14:18:49.676Z,47.80
2023-01-01T14:21:15.951Z,46.85
2023-01-01T14:23:42.227Z,46.92
2023-01-01T14:26:08.498Z,47.50
2023-01-01T14:28:34.742Z,47.39
2023-01-01T14:31:06.960Z,46.92
2023-01-01T14:33:36.656Z,47.12
2023-01-01T14:36:02.957Z,47.69
2023-01-01T14:38:29.237Z,46.83
2023-01-01T14:40:55.505Z,46.89
2023-01-01T14:43:21.773Z,46.10
2023-01-01T14:45:48.061Z,47.12
2023-01-01T14:48:14.343Z,47.48
2023-01-01T14:50:40.598Z,48.20
2023-01-01T14:53:06.887Z,47.52
2023-01-01T14:55:33.145Z,47.53
2023-01-01T14:57:59.428Z,48.10
2023-01-01T15:00:25.687Z,48.08
2023-01-01T15:02:52.057Z,48.34
2023-01-01T15:05:18.396Z,48.86
2023-01-01T15:07:44.676Z,48.51
2023-01-01T15:10:10.974Z,49.67
2023-01-01T15:12:37.240Z,48.97
2023-01-01T15:15:03.510Z,49.33
2023-01-01T15:17:29.849Z,49.91
2023-01-01T15:19:56.163Z,49.01
2023-01-01T15:22:22.432Z,49.62
2023-01-01T15:24:48.688Z,50.53
2023-01-01T15:27:14.950Z,50.75
2023-01-01T15:29:41.190Z,50.34
2023-01-01T15:32:07.587Z,50.48
2023-01-01T15:34:33.901Z,50.55
2023-01-01T15:37:00.176Z,50.30
2023-01-01T15:39:26.467Z,51.07
2023-01-01T15:41:52.771Z,51.42
2023-01-01T15:44:19.061Z,51.54
2023-01-01T15:46:45.313Z,51.23
2023-01-01T15:49:11.588Z,51.81
2023-01-01T15:51:37.866Z,51.40
2023-01-01T15:54:04.152Z,51.69
2023-01-01T15:56:30.409Z,51.70
2023-01-01T15:58:56.642Z,51.15
2023-01-01T16:01:22.973Z,51.47
2023-01-01T16:03:49.319Z,52.43
2023-01-01T16:06:15.591Z,51.55
2023-01-01T16:08:41.845Z,52.79
2023-01-01T16:11:08.112Z,52.79
2023-01-01T16:13:34.410Z,52.50
2023-01-01T16:16:00.665Z,52.91
2023-01-01T16:18:26.947Z,52.93
2023-01-01T16:20:53.219Z,53.32
2023-01-01T16:23:19.491Z,53.19
2023-01-01T16:25:45.773Z,53.33
2023-01-01T16:28:12.101Z,53.42
2023-01-01T16:30:38.396Z,53.51
2023-01-01T16:33:04.747Z,53.99
2023-01-01T16:35:31.000Z,53.52
2023-01-01T16:37:57.287Z,53.71
2023-01-01T16:40:23.552Z,54.06
2023-01-01T16:42:49.842Z,54.44
2023-01-01T16:45:16.100Z,54.63
2023-01-01T16:47:42.368Z,54.74
2023-01-01T16:50:08.633Z,55.02
2023-01-01T16:52:38.321Z,55.16
2023-01-01T16:55:07.348Z,55.78
2023-01-01T16:57:33.624Z,55.71
2023-01-01T16:59:59.908Z,55.74
2023-01-01T17:02:26.306Z,55.71
2023-01-01T17:04:52.711Z,55.91
2023-01-01T17:07:19.039Z,55.85
2023-01-01T17:09:45.311Z,56.23
2023-01-01T17:12:11.574Z,56.18
2023-01-01T17:14:37.821Z,56.11
2023-01-01T17:17:04.122Z,56.33
2023-01-01T17:19:30.397Z,55.95
2023-01-01T17:21:56.660Z,56.13
2023-01-01T17:24:22.949Z,56.25
2023-01-01T17:26:49.207Z,55.86
2023-01-01T17:29:15.490Z,57.02
2023-01-01T17:31:41.768Z,56.29
2023-01-01T17:34:11.893Z,56.99
2023-01-01T17:36:40.108Z,56.87
2023-01-01T17:39:06.354Z,56.34
2023-01-01T17:41:32.626Z,56.35
2023-01-01T17:43:58.872Z,56.62
2023-01-01T17:46:25.177Z,56.93
2023-01-01T17:48:51.474Z,56.21
2023-01-01T17:51:17.734Z,56.88
2023-01-01T17:53:44.115Z,56.98
2023-01-01T17:56:10.365Z,56.83
2023-01-01T17:58:36.675Z,57.37
2023-01-01T18:01:03.026Z,57.44
2023-01-01T18:03:29.443Z,57.04
2023-01-01T18:05:55.875Z,57.38
2023-01-01T18:08:22.199Z,57.30
2023-01-01T18:10:48.456Z,57.05
2023-01-01T18:13:14.718Z,56.85
2023-01-01T18:15:41.039Z,57.10
2023-01-01T18:18:07.316Z,56.84
2023-01-01T18:20:33.587Z,57.21
2023-01-01T18:22:59.942Z,57.02
2023-01-01T18:25:26.191Z,57.45
2023-01-01T18:27:57.348Z,57.51
2023-01-01T18:30:23.956Z,58.20
2023-01-01T18:32:50.248Z,57.60
2023-01-01T18:35:16.541Z,57.38
2023-01-01T18:37:42.829Z,58.13
2023-01-01T18:40:09.122Z,58.00
2023-01-01T18:42:35.455Z,57.46
2023-01-01T18:45:01.751Z,57.56
2023-01-01T18:47:28.033Z,58.30
2023-01-01T18:49:54.340Z,58.16
2023-01-01T18:52:20.694Z,58.01
2023-01-01T18:54:47.066Z,58.13
2023-01-01T18:57:13.385Z,58.32
2023-01-01T18:59:39.655Z,58.61
2023-01-01T19:02:06.075Z,58.00
2023-01-01T19:04:32.396Z,58.49
2023-01-01T19:06:58.640Z,58.08
2023-01-01T19:09:24.890Z,58.11
2023-01-01T19:11:51.164Z,57.77
2023-01-01T19:14:17.503Z,58.57
2023-01-01T19:16:43.788Z,58.62
2023-01-01T19:19:10.071Z,58.13
2023-01-01T19:21:36.356Z,57.98
2023-01-01T19:24:02.615Z,58.66
2023-01-01T19:26:28.893Z,57.97
2023-01-01T19:28:55.182Z,57.85
2023-01-01T19:31:21.475Z,58.26
2023-01-01T19:33:47.766Z,58.01
2023-01-01T19:36:14.022Z,57.92
2023-01-01T19:38:40.301Z,58.09
2023-01-01T19:41:06.566Z,57.57
2023-01-01T19:43:32.861Z,57.77
2023-01-01T19:45:59.154Z,57.16
2023-01-01T19:48:25.418Z,57.75
2023-01-01T19:50:51.720Z,57.11
2023-01-01T19:53:17.994Z,57.45
2023-01-01T19:55:44.309Z,57.57
2023-01-01T19:58:10.577Z,57.85
2023-01-01T20:00:36.912Z,57.88
2023-01-01T20:03:34.120Z,57.67
2023-01-01T20:05:49.396Z,57.96
2023-01-01T20:08:15.659Z,57.34
2023-01-01T20:10:41.903Z,57.63
2023-01-01T20:13:08.167Z,58.00
2023-01-01T20:15:34.421Z,57.37
2023-01-01T20:18:00.669Z,57.55
2023-01-01T20:20:26.977Z,58.14
2023-01-01T20:22:53.227Z,58.03
2023-01-01T20:25:19.509Z,57.63
2023-01-01T20:27:50.271Z,57.41
2023-01-01T20:30:20.996Z,57.91
2023-01-01T20:32:47.275Z,57.68
2023-01-01T20:35:13.538Z,57.65
2023-01-01T20:37:39.832Z,58.13
2023-01-01T20:40:06.103Z,57.21
2023-01-01T20:42:32.353Z,57.84
2023-01-01T20:44:58.611Z,57.85
2023-01-01T20:47:24.884Z,57.80
2023-01-01T20:49:51.147Z,57.71
2023-01-01T20:52:17.390Z,57.07
2023-01-01T20:54:43.657Z,57.12
2023-01-01T20:57:09.956Z,57.53
2023-01-01T20:59:37.633Z,57.58
2023-01-01T21:02:05.123Z,57.62
2023-01-01T21:04:31.583Z,57.49
2023-01-01T21:06:57.855Z,57.41
2023-01-01T21:09:24.122Z,57.66
2023-01-01T21:11:50.382Z,57.49
2023-01-01T21:14:16.651Z,57.75
2023-01-01T21:16:42.990Z,57.98
2023-01-01T21:19:09.429Z,58.06
2023-01-01T21:21:35.715Z,58.10
2023-01-01T21:24:02.003Z,57.52
2023-01-01T21:26:28.291Z,57.64
2023-01-01T21:28:54.550Z,57.90
2023-01-01T21:31:20.845Z,58.68
2023-01-01T21:33:47.124Z,57.70
2023-01-01T21:36:13.405Z,57.85
2023-01-01T21:38:39.654Z,57.92
2023-01-01T21:41:05.902Z,57.79
2023-01-01T21:43:32.197Z,57.70
2023-01-01T21:45:58.512Z,57.65
2023-01-01T21:48:24.869Z,57.19
2023-01-01T21:50:51.149Z,57.82
2023-01-01T21:53:17.415Z,57.93
2023-01-01T21:55:43.686Z,57.48
2023-01-01T21:58:13.020Z,57.49
2023-01-01T22:00:41.328Z,56.94
2023-01-01T22:03:07.615Z,57.07
2023-01-01T22:05:33.972Z,57.10
2023-01-01T22:08:00.333Z,57.40
2023-01-01T22:10:26.758Z,56.61
2023-01-01T22:12:53.026Z,56.42
2023-01-01T22:15:19.313Z,57.05
2023-01-01T22:17:45.586Z,56.76
2023-01-01T22:20:11.888Z,56.90
2023-01-01T22:22:38.153Z,57.00
2023-01-01T22:25:04.422Z,56.55
2023-01-01T22:27:30.708Z,56.32
2023-01-01T22:29:56.978Z,56.51
2023-01-01T22:32:23.256Z,56.83
2023-01-01T22:34:49.563Z,57.46
2023-01-01T22:37:15.839Z,57.41
2023-01-01T22:39:42.086Z,57.15
2023-01-01T22:42:08.339Z,57.25
2023-01-01T22:44:34.621Z,56.77
2023-01-01T22:47:00.878Z,57.29
2023-01-01T22:49:27.152Z,56.90
2023-01-01T22:51:53.413Z,57.22
2023-01-01T22:54:19.683Z,57.25
2023-01-01T22:56:45.956Z,57.16
2023-01-01T22:59:12.227Z,57.03
2023-01-01T23:01:38.560Z,56.95
2023-01-01T23:04:04.844Z,57.07
2023-01-01T23:06:31.127Z,57.49
2023-01-01T23:08:57.410Z,56.89
2023-01-01T23:11:23.671Z,57.30
2023-01-01T23:13:49.913Z,57.18
2023-01-01T23:16:16.254Z,56.66
2023-01-01T23:18:42.580Z,56.75
2023-01-01T23:21:08.872Z,56.77
2023-01-01T23:23:35.243Z,57.46
2023-01-01T23:26:01.522Z,56.74
2023-01-01T23:28:27.800Z,57.13
2023-01-01T23:30:54.112Z,57.17
2023-01-01T23:33:20.427Z,57.47
2023-01-01T23:35:46.696Z,57.52
2023-01-01T23:38:12.960Z,57.26
2023-01-01T23:40:39.257Z,57.54
2023-01-01T23:43:05.545Z,57.79
2023-01-01T23:45:31.817Z,57.10
2023-01-01T23:47:58.097Z,57.52
2023-01-01T23:50:24.357Z,57.79
2023-01-01T23:52:50.656Z,57.73
2023-01-01T23:55:16.926Z,57.35
2023-01-01T23:57:43.189Z,57.20
